sensor_id;sensor_type;location;lat;lon;timestamp;P1;durP1;ratioP1;P2;durP2;ratioP2
22230;SDS011;11284;48.086;-1.652;2023-12-29T00:02:13;16.48;;;3.55;;
22230;SDS011;11284;48.086;-1.652;2023-12-29T00:04:39;19.58;;;4.10;;
22230;SDS011;11284;48.086;-1.652;2023-12-29T00:07:05;16.88;;;3.20;;
22230;SDS011;11284;48.086;-1.652;2023-12-29T00:09:31;17.60;;;3.67;;
22230;SDS011;11284;48.086;-1.652;2023-12-29T00:12:03;18.15;;;3.55;;
22230;SDS011;11284;48.086;-1.652;2023-12-29T00:14:29;17.58;;;3.47;;
22230;SDS011;11284;48.086;-1.652;2023-12-29T00:16:55;15.75;;;3.08;;
22230;SDS011;11284;48.086;-1.652;2023-12-29T00:19:22;17.13;;;3.67;;
22230;SDS011;11284;48.086;-1.652;2023-12-29T00:21:48;21.20;;;3.65;;
22230;SDS011;11284;48.086;-1.652;2023-12-29T00:24:14;14.50;;;3.25;;
22230;SDS011;11284;48.086;-1.652;2023-12-29T00:26:40;18.98;;;3.70;;
22230;SDS011;11284;48.086;-1.652;2023-12-29T00:29:06;17.65;;;3.20;;
22230;SDS011;11284;48.086;-1.652;2023-12-29T00:31:32;18.92;;;3.38;;
22230;SDS011;11284;48.086;-1.652;2023-12-29T00:33:58;16.08;;;3.45;;
22230;SDS011;11284;48.086;-1.652;2023-12-29T00:36:24;16.33;;;2.92;;
22230;SDS011;11284;48.086;-1.652;2023-12-29T00:38:50;18.17;;;3.10;;
22230;SDS011;11284;48.086;-1.652;2023-12-29T00:41:16;16.08;;;3.08;;
22230;SDS011;11284;48.086;-1.652;2023-12-29T00:43:42;19.75;;;3.97;;
22230;SDS011;11284;48.086;-1.652;2023-12-29T00:46:08;19.33;;;3.17;;
22230;SDS011;11284;48.086;-1.652;2023-12-29T00:48:34;17.55;;;3.47;;
22230;SDS011;11284;48.086;-1.652;2023-12-29T00:51:01;15.63;;;3.00;;
22230;SDS011;11284;48.086;-1.652;2023-12-29T00:53:27;14.18;;;2.80;;
22230;SDS011;11284;48.086;-1.652;2023-12-29T00:55:54;17.02;;;2.70;;
22230;SDS011;11284;48.086;-1.652;2023-12-29T00:58:20;16.00;;;3.25;;
22230;SDS011;11284;48.086;-1.652;2023-12-29T01:00:47;16.15;;;2.88;;
22230;SDS011;11284;48.086;-1.652;2023-12-29T01:03:13;19.85;;;3.10;;
22230;SDS011;11284;48.086;-1.652;2023-12-29T01:05:39;15.13;;;3.45;;
22230;SDS011;11284;48.086;-1.652;2023-12-29T01:08:05;17.15;;;3.20;;
22230;SDS011;11284;48.086;-1.652;2023-12-29T01:10:31;15.18;;;2.70;;
22230;SDS011;11284;48.086;-1.652;2023-12-29T01:12:57;14.68;;;3.03;;
22230;SDS011;11284;48.086;-1.652;2023-12-29T01:15:23;17.50;;;3.30;;
22230;SDS011;11284;48.086;-1.652;2023-12-29T01:17:49;16.25;;;2.53;;
22230;SDS011;11284;48.086;-1.652;2023-12-29T01:20:15;17.77;;;3.25;;
22230;SDS011;11284;48.086;-1.652;2023-12-29T01:22:41;20.75;;;3.67;;
22230;SDS011;11284;48.086;-1.652;2023-12-29T01:25:07;18.05;;;3.15;;
22230;SDS011;11284;48.086;-1.652;2023-12-29T01:27:33;20.40;;;3.63;;
22230;SDS011;11284;48.086;-1.652;2023-12-29T01:29:59;14.65;;;3.15;;
22230;SDS011;11284;48.086;-1.652;2023-12-29T01:32:25;18.05;;;3.25;;
22230;SDS011;11284;48.086;-1.652;2023-12-29T01:34:54;19.30;;;3.22;;
22230;SDS011;11284;48.086;-1.652;2023-12-29T01:37:20;17.52;;;3.28;;
22230;SDS011;11284;48.086;-1.652;2023-12-29T01:39:46;22.63;;;3.60;;
22230;SDS011;11284;48.086;-1.652;2023-12-29T01:42:12;15.38;;;3.13;;
22230;SDS011;11284;48.086;-1.652;2023-12-29T01:44:38;17.15;;;3.30;;
22230;SDS011;11284;48.086;-1.652;2023-12-29T01:47:05;15.80;;;2.95;;
22230;SDS011;11284;48.086;-1.652;2023-12-29T01:49:35;16.48;;;3.17;;
22230;SDS011;11284;48.086;-1.652;2023-12-29T01:52:02;20.60;;;3.75;;
22230;SDS011;11284;48.086;-1.652;2023-12-29T01:54:30;17.23;;;3.08;;
22230;SDS011;11284;48.086;-1.652;2023-12-29T01:56:57;20.35;;;3.42;;
22230;SDS011;11284;48.086;-1.652;2023-12-29T01:59:25;19.83;;;3.50;;
22230;SDS011;11284;48.086;-1.652;2023-12-29T02:01:51;18.13;;;3.40;;
22230;SDS011;11284;48.086;-1.652;2023-12-29T02:04:17;22.33;;;3.58;;
22230;SDS011;11284;48.086;-1.652;2023-12-29T02:06:43;18.45;;;3.58;;
22230;SDS011;11284;48.086;-1.652;2023-12-29T02:09:09;20.48;;;3.45;;
22230;SDS011;11284;48.086;-1.652;2023-12-29T02:11:37;16.17;;;3.17;;
22230;SDS011;11284;48.086;-1.652;2023-12-29T02:14:03;22.27;;;4.05;;
22230;SDS011;11284;48.086;-1.652;2023-12-29T02:19:12;18.77;;;3.42;;
22230;SDS011;11284;48.086;-1.652;2023-12-29T02:21:39;17.05;;;3.40;;
22230;SDS011;11284;48.086;-1.652;2023-12-29T02:24:05;20.33;;;3.08;;
22230;SDS011;11284;48.086;-1.652;2023-12-29T02:26:31;17.40;;;3.05;;
22230;SDS011;11284;48.086;-1.652;2023-12-29T02:29:01;21.70;;;4.13;;
22230;SDS011;11284;48.086;-1.652;2023-12-29T02:31:28;15.23;;;3.15;;
22230;SDS011;11284;48.086;-1.652;2023-12-29T02:33:55;16.98;;;3.33;;
22230;SDS011;11284;48.086;-1.652;2023-12-29T02:36:22;18.65;;;3.10;;
22230;SDS011;11284;48.086;-1.652;2023-12-29T02:38:48;17.65;;;3.40;;
22230;SDS011;11284;48.086;-1.652;2023-12-29T02:41:14;22.98;;;2.85;;
22230;SDS011;11284;48.086;-1.652;2023-12-29T02:43:40;16.98;;;3.13;;
22230;SDS011;11284;48.086;-1.652;2023-12-29T02:46:06;15.93;;;3.47;;
22230;SDS011;11284;48.086;-1.652;2023-12-29T02:48:32;21.60;;;3.58;;
22230;SDS011;11284;48.086;-1.652;2023-12-29T02:50:58;16.92;;;3.15;;
22230;SDS011;11284;48.086;-1.652;2023-12-29T02:53:24;18.90;;;3.60;;
22230;SDS011;11284;48.086;-1.652;2023-12-29T02:55:50;15.45;;;2.95;;
22230;SDS011;11284;48.086;-1.652;2023-12-29T02:58:16;20.02;;;3.33;;
22230;SDS011;11284;48.086;-1.652;2023-12-29T03:00:42;13.00;;;2.30;;
22230;SDS011;11284;48.086;-1.652;2023-12-29T03:03:08;21.98;;;4.13;;
22230;SDS011;11284;48.086;-1.652;2023-12-29T03:05:34;16.42;;;3.17;;
22230;SDS011;11284;48.086;-1.652;2023-12-29T03:08:00;20.15;;;2.92;;
22230;SDS011;11284;48.086;-1.652;2023-12-29T03:10:26;16.58;;;3.30;;
22230;SDS011;11284;48.086;-1.652;2023-12-29T03:12:52;20.35;;;3.58;;
22230;SDS011;11284;48.086;-1.652;2023-12-29T03:15:18;18.05;;;2.72;;
22230;SDS011;11284;48.086;-1.652;2023-12-29T03:17:44;19.90;;;2.42;;
22230;SDS011;11284;48.086;-1.652;2023-12-29T03:20:10;15.82;;;3.00;;
22230;SDS011;11284;48.086;-1.652;2023-12-29T03:22:38;15.15;;;2.72;;
22230;SDS011;11284;48.086;-1.652;2023-12-29T03:25:04;16.10;;;2.42;;
22230;SDS011;11284;48.086;-1.652;2023-12-29T03:27:30;16.85;;;2.70;;
22230;SDS011;11284;48.086;-1.652;2023-12-29T03:29:56;18.25;;;2.78;;
22230;SDS011;11284;48.086;-1.652;2023-12-29T03:32:22;21.08;;;3.78;;
22230;SDS011;11284;48.086;-1.652;2023-12-29T03:34:48;15.95;;;2.75;;
22230;SDS011;11284;48.086;-1.652;2023-12-29T03:37:14;16.70;;;2.97;;
22230;SDS011;11284;48.086;-1.652;2023-12-29T03:39:40;17.92;;;2.65;;
22230;SDS011;11284;48.086;-1.652;2023-12-29T03:42:06;11.98;;;2.83;;
22230;SDS011;11284;48.086;-1.652;2023-12-29T03:44:32;19.92;;;2.67;;
22230;SDS011;11284;48.086;-1.652;2023-12-29T03:46:58;17.52;;;2.75;;
22230;SDS011;11284;48.086;-1.652;2023-12-29T03:49:24;19.58;;;2.95;;
22230;SDS011;11284;48.086;-1.652;2023-12-29T03:51:50;15.15;;;2.78;;
22230;SDS011;11284;48.086;-1.652;2023-12-29T03:54:16;15.38;;;2.75;;
22230;SDS011;11284;48.086;-1.652;2023-12-29T03:56:44;15.60;;;2.85;;
22230;SDS011;11284;48.086;-1.652;2023-12-29T03:59:10;14.23;;;3.05;;
22230;SDS011;11284;48.086;-1.652;2023-12-29T04:01:36;16.65;;;3.03;;
22230;SDS011;11284;48.086;-1.652;2023-12-29T04:04:02;18.52;;;3.05;;
22230;SDS011;11284;48.086;-1.652;2023-12-29T04:06:28;18.02;;;2.95;;
22230;SDS011;11284;48.086;-1.652;2023-12-29T04:08:54;15.80;;;3.20;;
22230;SDS011;11284;48.086;-1.652;2023-12-29T04:11:20;15.80;;;2.90;;
22230;SDS011;11284;48.086;-1.652;2023-12-29T04:13:46;19.15;;;3.10;;
22230;SDS011;11284;48.086;-1.652;2023-12-29T04:16:12;20.63;;;3.85;;
22230;SDS011;11284;48.086;-1.652;2023-12-29T04:18:38;21.20;;;2.92;;
22230;SDS011;11284;48.086;-1.652;2023-12-29T04:21:04;13.88;;;3.15;;
22230;SDS011;11284;48.086;-1.652;2023-12-29T04:23:30;18.45;;;2.97;;
22230;SDS011;11284;48.086;-1.652;2023-12-29T04:25:56;18.10;;;3.28;;
22230;SDS011;11284;48.086;-1.652;2023-12-29T04:28:22;17.10;;;3.03;;
22230;SDS011;11284;48.086;-1.652;2023-12-29T04:30:48;20.27;;;2.88;;
22230;SDS011;11284;48.086;-1.652;2023-12-29T04:33:14;14.23;;;2.70;;
22230;SDS011;11284;48.086;-1.652;2023-12-29T04:35:40;18.48;;;3.63;;
22230;SDS011;11284;48.086;-1.652;2023-12-29T04:38:06;22.15;;;3.00;;
22230;SDS011;11284;48.086;-1.652;2023-12-29T04:40:32;25.10;;;3.40;;
22230;SDS011;11284;48.086;-1.652;2023-12-29T04:42:58;16.35;;;2.95;;
22230;SDS011;11284;48.086;-1.652;2023-12-29T04:45:24;17.33;;;3.10;;
22230;SDS011;11284;48.086;-1.652;2023-12-29T04:47:50;17.27;;;2.95;;
22230;SDS011;11284;48.086;-1.652;2023-12-29T04:50:16;16.08;;;3.05;;
22230;SDS011;11284;48.086;-1.652;2023-12-29T04:52:42;14.40;;;2.47;;
22230;SDS011;11284;48.086;-1.652;2023-12-29T04:55:08;24.92;;;3.50;;
22230;SDS011;11284;48.086;-1.652;2023-12-29T04:57:34;17.50;;;3.55;;
22230;SDS011;11284;48.086;-1.652;2023-12-29T05:00:00;16.23;;;2.97;;
22230;SDS011;11284;48.086;-1.652;2023-12-29T05:02:26;18.40;;;3.05;;
22230;SDS011;11284;48.086;-1.652;2023-12-29T05:04:52;17.50;;;2.83;;
22230;SDS011;11284;48.086;-1.652;2023-12-29T05:07:18;23.52;;;3.67;;
22230;SDS011;11284;48.086;-1.652;2023-12-29T05:09:44;18.55;;;3.67;;
22230;SDS011;11284;48.086;-1.652;2023-12-29T05:12:10;16.35;;;2.50;;
22230;SDS011;11284;48.086;-1.652;2023-12-29T05:14:36;18.98;;;3.50;;
22230;SDS011;11284;48.086;-1.652;2023-12-29T05:17:02;18.15;;;3.15;;
22230;SDS011;11284;48.086;-1.652;2023-12-29T05:19:28;13.57;;;2.95;;
22230;SDS011;11284;48.086;-1.652;2023-12-29T05:21:54;19.58;;;2.65;;
22230;SDS011;11284;48.086;-1.652;2023-12-29T05:24:20;18.83;;;3.05;;
22230;SDS011;11284;48.086;-1.652;2023-12-29T05:26:46;18.15;;;3.10;;
22230;SDS011;11284;48.086;-1.652;2023-12-29T05:29:12;20.58;;;3.70;;
22230;SDS011;11284;48.086;-1.652;2023-12-29T05:31:38;15.02;;;2.97;;
22230;SDS011;11284;48.086;-1.652;2023-12-29T05:34:04;17.95;;;3.20;;
22230;SDS011;11284;48.086;-1.652;2023-12-29T05:36:34;18.85;;;3.30;;
22230;SDS011;11284;48.086;-1.652;2023-12-29T05:39:02;22.73;;;3.83;;
22230;SDS011;11284;48.086;-1.652;2023-12-29T05:41:28;17.65;;;2.50;;
22230;SDS011;11284;48.086;-1.652;2023-12-29T05:43:54;21.55;;;3.63;;
22230;SDS011;11284;48.086;-1.652;2023-12-29T05:46:22;16.17;;;3.45;;
22230;SDS011;11284;48.086;-1.652;2023-12-29T05:48:48;20.50;;;3.47;;
22230;SDS011;11284;48.086;-1.652;2023-12-29T05:51:17;16.08;;;3.58;;
22230;SDS011;11284;48.086;-1.652;2023-12-29T05:53:43;23.60;;;3.33;;
22230;SDS011;11284;48.086;-1.652;2023-12-29T05:56:11;20.40;;;3.30;;
22230;SDS011;11284;48.086;-1.652;2023-12-29T05:58:38;18.50;;;3.42;;
22230;SDS011;11284;48.086;-1.652;2023-12-29T06:01:04;17.10;;;3.42;;
22230;SDS011;11284;48.086;-1.652;2023-12-29T06:03:30;17.42;;;3.40;;
22230;SDS011;11284;48.086;-1.652;2023-12-29T06:05:56;18.38;;;3.15;;
22230;SDS011;11284;48.086;-1.652;2023-12-29T06:08:22;13.82;;;2.90;;
22230;SDS011;11284;48.086;-1.652;2023-12-29T06:10:48;19.05;;;3.00;;
22230;SDS011;11284;48.086;-1.652;2023-12-29T06:13:14;19.08;;;3.88;;
22230;SDS011;11284;48.086;-1.652;2023-12-29T06:15:40;16.58;;;3.42;;
22230;SDS011;11284;48.086;-1.652;2023-12-29T06:18:06;19.52;;;3.95;;
22230;SDS011;11284;48.086;-1.652;2023-12-29T06:20:32;21.27;;;4.03;;
22230;SDS011;11284;48.086;-1.652;2023-12-29T06:22:58;17.15;;;3.00;;
22230;SDS011;11284;48.086;-1.652;2023-12-29T06:25:24;17.95;;;3.17;;
22230;SDS011;11284;48.086;-1.652;2023-12-29T06:27:50;16.92;;;3.90;;
22230;SDS011;11284;48.086;-1.652;2023-12-29T06:30:16;20.15;;;3.05;;
22230;SDS011;11284;48.086;-1.652;2023-12-29T06:32:42;18.13;;;2.88;;
22230;SDS011;11284;48.086;-1.652;2023-12-29T06:35:08;17.85;;;3.08;;
22230;SDS011;11284;48.086;-1.652;2023-12-29T06:37:36;21.17;;;3.13;;
22230;SDS011;11284;48.086;-1.652;2023-12-29T06:40:02;16.65;;;3.33;;
22230;SDS011;11284;48.086;-1.652;2023-12-29T06:42:28;17.90;;;3.45;;
22230;SDS011;11284;48.086;-1.652;2023-12-29T06:44:55;21.42;;;3.22;;
22230;SDS011;11284;48.086;-1.652;2023-12-29T06:47:21;15.32;;;3.30;;
22230;SDS011;11284;48.086;-1.652;2023-12-29T06:49:47;17.50;;;3.47;;
22230;SDS011;11284;48.086;-1.652;2023-12-29T06:52:13;15.23;;;2.80;;
22230;SDS011;11284;48.086;-1.652;2023-12-29T06:54:39;15.88;;;2.63;;
22230;SDS011;11284;48.086;-1.652;2023-12-29T06:57:06;19.58;;;3.10;;
22230;SDS011;11284;48.086;-1.652;2023-12-29T06:59:32;17.83;;;3.15;;
22230;SDS011;11284;48.086;-1.652;2023-12-29T07:01:58;13.23;;;2.95;;
22230;SDS011;11284;48.086;-1.652;2023-12-29T07:04:24;17.30;;;3.03;;
22230;SDS011;11284;48.086;-1.652;2023-12-29T07:06:50;21.73;;;3.50;;
22230;SDS011;11284;48.086;-1.652;2023-12-29T07:09:16;18.58;;;2.95;;
22230;SDS011;11284;48.086;-1.652;2023-12-29T07:11:42;19.10;;;3.95;;
22230;SDS011;11284;48.086;-1.652;2023-12-29T07:14:12;20.17;;;3.10;;
22230;SDS011;11284;48.086;-1.652;2023-12-29T07:16:38;16.50;;;3.30;;
22230;SDS011;11284;48.086;-1.652;2023-12-29T07:19:04;16.58;;;2.95;;
22230;SDS011;11284;48.086;-1.652;2023-12-29T07:21:30;18.52;;;3.10;;
22230;SDS011;11284;48.086;-1.652;2023-12-29T07:23:56;17.77;;;3.00;;
22230;SDS011;11284;48.086;-1.652;2023-12-29T07:26:22;14.60;;;3.17;;
22230;SDS011;11284;48.086;-1.652;2023-12-29T07:28:48;17.27;;;3.38;;
22230;SDS011;11284;48.086;-1.652;2023-12-29T07:31:19;21.23;;;4.20;;
22230;SDS011;11284;48.086;-1.652;2023-12-29T07:33:45;18.77;;;3.60;;
22230;SDS011;11284;48.086;-1.652;2023-12-29T07:36:11;29.60;;;4.43;;
22230;SDS011;11284;48.086;-1.652;2023-12-29T07:38:37;25.98;;;4.80;;
22230;SDS011;11284;48.086;-1.652;2023-12-29T07:41:03;23.58;;;5.13;;
22230;SDS011;11284;48.086;-1.652;2023-12-29T07:43:29;23.25;;;5.40;;
22230;SDS011;11284;48.086;-1.652;2023-12-29T07:45:55;21.10;;;5.03;;
22230;SDS011;11284;48.086;-1.652;2023-12-29T07:48:21;25.20;;;5.13;;
22230;SDS011;11284;48.086;-1.652;2023-12-29T07:50:47;22.05;;;5.70;;
22230;SDS011;11284;48.086;-1.652;2023-12-29T07:53:13;19.73;;;5.32;;
22230;SDS011;11284;48.086;-1.652;2023-12-29T07:55:39;21.52;;;4.70;;
22230;SDS011;11284;48.086;-1.652;2023-12-29T07:58:05;25.52;;;5.22;;
22230;SDS011;11284;48.086;-1.652;2023-12-29T08:00:34;19.80;;;4.43;;
22230;SDS011;11284;48.086;-1.652;2023-12-29T08:03:00;16.63;;;4.20;;
22230;SDS011;11284;48.086;-1.652;2023-12-29T08:05:26;15.77;;;3.80;;
22230;SDS011;11284;48.086;-1.652;2023-12-29T08:07:53;19.27;;;4.35;;
22230;SDS011;11284;48.086;-1.652;2023-12-29T08:10:19;20.45;;;4.03;;
22230;SDS011;11284;48.086;-1.652;2023-12-29T08:12:45;19.85;;;3.65;;
22230;SDS011;11284;48.086;-1.652;2023-12-29T08:15:12;14.55;;;3.30;;
22230;SDS011;11284;48.086;-1.652;2023-12-29T08:17:38;13.30;;;3.05;;
22230;SDS011;11284;48.086;-1.652;2023-12-29T08:20:04;14.45;;;2.97;;
22230;SDS011;11284;48.086;-1.652;2023-12-29T08:22:31;16.58;;;3.22;;
22230;SDS011;11284;48.086;-1.652;2023-12-29T08:24:57;14.85;;;2.72;;
22230;SDS011;11284;48.086;-1.652;2023-12-29T08:27:24;13.25;;;3.03;;
22230;SDS011;11284;48.086;-1.652;2023-12-29T08:29:53;18.30;;;2.90;;
22230;SDS011;11284;48.086;-1.652;2023-12-29T08:32:19;14.07;;;3.03;;
22230;SDS011;11284;48.086;-1.652;2023-12-29T08:34:46;13.88;;;2.85;;
22230;SDS011;11284;48.086;-1.652;2023-12-29T08:37:12;16.95;;;3.10;;
22230;SDS011;11284;48.086;-1.652;2023-12-29T08:39:40;16.38;;;2.83;;
22230;SDS011;11284;48.086;-1.652;2023-12-29T08:42:06;18.25;;;3.10;;
22230;SDS011;11284;48.086;-1.652;2023-12-29T08:44:32;15.35;;;3.03;;
22230;SDS011;11284;48.086;-1.652;2023-12-29T08:46:58;14.10;;;2.88;;
22230;SDS011;11284;48.086;-1.652;2023-12-29T08:49:24;12.65;;;3.13;;
22230;SDS011;11284;48.086;-1.652;2023-12-29T08:51:50;17.38;;;2.75;;
22230;SDS011;11284;48.086;-1.652;2023-12-29T08:54:16;15.77;;;3.05;;
22230;SDS011;11284;48.086;-1.652;2023-12-29T08:56:42;14.35;;;2.55;;
22230;SDS011;11284;48.086;-1.652;2023-12-29T08:59:08;20.77;;;3.22;;
22230;SDS011;11284;48.086;-1.652;2023-12-29T09:01:34;16.73;;;2.97;;
22230;SDS011;11284;48.086;-1.652;2023-12-29T09:04:00;15.25;;;2.90;;
22230;SDS011;11284;48.086;-1.652;2023-12-29T09:06:26;13.05;;;2.33;;
22230;SDS011;11284;48.086;-1.652;2023-12-29T09:08:52;16.58;;;3.05;;
22230;SDS011;11284;48.086;-1.652;2023-12-29T09:11:18;15.30;;;3.03;;
22230;SDS011;11284;48.086;-1.652;2023-12-29T09:13:44;12.98;;;3.08;;
22230;SDS011;11284;48.086;-1.652;2023-12-29T09:16:10;11.32;;;2.60;;
22230;SDS011;11284;48.086;-1.652;2023-12-29T09:18:37;14.10;;;2.97;;
22230;SDS011;11284;48.086;-1.652;2023-12-29T09:21:03;13.70;;;2.92;;
22230;SDS011;11284;48.086;-1.652;2023-12-29T09:23:29;16.38;;;2.85;;
22230;SDS011;11284;48.086;-1.652;2023-12-29T09:25:55;11.82;;;2.92;;
22230;SDS011;11284;48.086;-1.652;2023-12-29T09:28:21;12.02;;;2.40;;
22230;SDS011;11284;48.086;-1.652;2023-12-29T09:30:47;12.15;;;2.95;;
22230;SDS011;11284;48.086;-1.652;2023-12-29T09:33:13;15.70;;;2.78;;
22230;SDS011;11284;48.086;-1.652;2023-12-29T09:35:39;14.52;;;2.78;;
22230;SDS011;11284;48.086;-1.652;2023-12-29T09:38:05;12.57;;;2.40;;
22230;SDS011;11284;48.086;-1.652;2023-12-29T09:40:31;12.70;;;2.28;;
22230;SDS011;11284;48.086;-1.652;2023-12-29T09:42:58;11.95;;;2.50;;
22230;SDS011;11284;48.086;-1.652;2023-12-29T09:45:24;17.30;;;3.72;;
22230;SDS011;11284;48.086;-1.652;2023-12-29T09:47:51;15.75;;;3.53;;
22230;SDS011;11284;48.086;-1.652;2023-12-29T09:50:19;14.40;;;2.83;;
22230;SDS011;11284;48.086;-1.652;2023-12-29T09:52:46;14.40;;;2.28;;
22230;SDS011;11284;48.086;-1.652;2023-12-29T09:55:13;16.50;;;3.05;;
22230;SDS011;11284;48.086;-1.652;2023-12-29T09:57:40;19.67;;;3.15;;
22230;SDS011;11284;48.086;-1.652;2023-12-29T10:00:09;13.15;;;2.75;;
22230;SDS011;11284;48.086;-1.652;2023-12-29T10:02:35;11.68;;;2.22;;
22230;SDS011;11284;48.086;-1.652;2023-12-29T10:05:02;12.32;;;2.47;;
22230;SDS011;11284;48.086;-1.652;2023-12-29T10:07:28;12.15;;;2.45;;
22230;SDS011;11284;48.086;-1.652;2023-12-29T10:09:57;12.38;;;2.55;;
22230;SDS011;11284;48.086;-1.652;2023-12-29T10:12:24;19.35;;;3.05;;
22230;SDS011;11284;48.086;-1.652;2023-12-29T10:17:28;17.48;;;2.80;;
22230;SDS011;11284;48.086;-1.652;2023-12-29T10:19:58;16.25;;;2.50;;
22230;SDS011;11284;48.086;-1.652;2023-12-29T10:24:57;18.40;;;2.83;;
22230;SDS011;11284;48.086;-1.652;2023-12-29T10:27:23;20.00;;;3.40;;
22230;SDS011;11284;48.086;-1.652;2023-12-29T10:29:52;16.77;;;2.38;;
22230;SDS011;11284;48.086;-1.652;2023-12-29T10:32:18;12.73;;;2.55;;
22230;SDS011;11284;48.086;-1.652;2023-12-29T10:34:44;16.67;;;2.97;;
22230;SDS011;11284;48.086;-1.652;2023-12-29T10:37:10;14.18;;;2.63;;
22230;SDS011;11284;48.086;-1.652;2023-12-29T10:39:40;15.75;;;3.42;;
22230;SDS011;11284;48.086;-1.652;2023-12-29T10:42:20;17.45;;;3.53;;
22230;SDS011;11284;48.086;-1.652;2023-12-29T10:44:46;14.98;;;3.75;;
22230;SDS011;11284;48.086;-1.652;2023-12-29T10:47:12;18.27;;;2.80;;
22230;SDS011;11284;48.086;-1.652;2023-12-29T10:49:39;15.52;;;3.50;;
22230;SDS011;11284;48.086;-1.652;2023-12-29T10:52:15;18.70;;;3.35;;
22230;SDS011;11284;48.086;-1.652;2023-12-29T10:54:44;16.45;;;2.67;;
22230;SDS011;11284;48.086;-1.652;2023-12-29T10:57:11;18.33;;;3.03;;
22230;SDS011;11284;48.086;-1.652;2023-12-29T10:59:37;20.77;;;3.45;;
22230;SDS011;11284;48.086;-1.652;2023-12-29T11:02:04;15.68;;;3.10;;
22230;SDS011;11284;48.086;-1.652;2023-12-29T11:04:30;15.43;;;3.22;;
22230;SDS011;11284;48.086;-1.652;2023-12-29T11:06:56;14.60;;;3.55;;
22230;SDS011;11284;48.086;-1.652;2023-12-29T11:11:59;15.27;;;2.50;;
22230;SDS011;11284;48.086;-1.652;2023-12-29T11:14:25;16.83;;;2.78;;
22230;SDS011;11284;48.086;-1.652;2023-12-29T11:16:53;14.88;;;3.05;;
22230;SDS011;11284;48.086;-1.652;2023-12-29T11:19:19;19.48;;;3.08;;
22230;SDS011;11284;48.086;-1.652;2023-12-29T11:21:46;12.27;;;2.78;;
22230;SDS011;11284;48.086;-1.652;2023-12-29T11:24:12;19.45;;;3.65;;
22230;SDS011;11284;48.086;-1.652;2023-12-29T11:26:38;16.90;;;3.15;;
22230;SDS011;11284;48.086;-1.652;2023-12-29T11:29:05;16.10;;;2.60;;
22230;SDS011;11284;48.086;-1.652;2023-12-29T11:31:31;13.02;;;2.60;;
22230;SDS011;11284;48.086;-1.652;2023-12-29T11:33:58;12.35;;;2.88;;
22230;SDS011;11284;48.086;-1.652;2023-12-29T11:36:28;12.10;;;2.72;;
22230;SDS011;11284;48.086;-1.652;2023-12-29T11:43:57;12.43;;;2.70;;
22230;SDS011;11284;48.086;-1.652;2023-12-29T11:46:35;13.02;;;2.17;;
22230;SDS011;11284;48.086;-1.652;2023-12-29T11:49:01;12.95;;;2.63;;
22230;SDS011;11284;48.086;-1.652;2023-12-29T11:51:44;12.85;;;2.53;;
22230;SDS011;11284;48.086;-1.652;2023-12-29T11:54:23;12.85;;;2.50;;
22230;SDS011;11284;48.086;-1.652;2023-12-29T11:56:50;10.35;;;2.00;;
22230;SDS011;11284;48.086;-1.652;2023-12-29T11:59:34;12.90;;;2.60;;
22230;SDS011;11284;48.086;-1.652;2023-12-29T12:02:05;15.90;;;2.95;;
22230;SDS011;11284;48.086;-1.652;2023-12-29T12:04:35;10.73;;;2.22;;
22230;SDS011;11284;48.086;-1.652;2023-12-29T12:07:15;15.98;;;3.13;;
22230;SDS011;11284;48.086;-1.652;2023-12-29T12:09:41;13.18;;;2.30;;
22230;SDS011;11284;48.086;-1.652;2023-12-29T12:12:09;8.95;;;2.30;;
22230;SDS011;11284;48.086;-1.652;2023-12-29T12:17:26;13.15;;;2.42;;
22230;SDS011;11284;48.086;-1.652;2023-12-29T12:19:56;12.25;;;2.70;;
22230;SDS011;11284;48.086;-1.652;2023-12-29T12:22:23;13.57;;;3.28;;
22230;SDS011;11284;48.086;-1.652;2023-12-29T12:24:59;14.68;;;2.72;;
22230;SDS011;11284;48.086;-1.652;2023-12-29T12:27:29;10.32;;;2.22;;
22230;SDS011;11284;48.086;-1.652;2023-12-29T12:29:56;10.50;;;2.08;;
22230;SDS011;11284;48.086;-1.652;2023-12-29T12:32:24;8.52;;;2.25;;
22230;SDS011;11284;48.086;-1.652;2023-12-29T12:34:51;14.50;;;2.08;;
22230;SDS011;11284;48.086;-1.652;2023-12-29T12:37:20;12.05;;;2.65;;
22230;SDS011;11284;48.086;-1.652;2023-12-29T12:39:46;11.57;;;2.28;;
22230;SDS011;11284;48.086;-1.652;2023-12-29T12:42:13;9.68;;;2.30;;
22230;SDS011;11284;48.086;-1.652;2023-12-29T12:44:40;14.02;;;2.47;;
22230;SDS011;11284;48.086;-1.652;2023-12-29T12:47:07;11.27;;;2.03;;
22230;SDS011;11284;48.086;-1.652;2023-12-29T12:49:34;11.32;;;2.30;;
22230;SDS011;11284;48.086;-1.652;2023-12-29T12:52:01;9.82;;;2.00;;
22230;SDS011;11284;48.086;-1.652;2023-12-29T12:54:27;9.70;;;1.98;;
22230;SDS011;11284;48.086;-1.652;2023-12-29T12:56:54;10.75;;;2.42;;
22230;SDS011;11284;48.086;-1.652;2023-12-29T12:59:20;11.90;;;2.17;;
22230;SDS011;11284;48.086;-1.652;2023-12-29T13:01:46;11.30;;;2.15;;
22230;SDS011;11284;48.086;-1.652;2023-12-29T13:04:13;11.35;;;2.03;;
22230;SDS011;11284;48.086;-1.652;2023-12-29T13:06:39;9.15;;;2.08;;
22230;SDS011;11284;48.086;-1.652;2023-12-29T13:09:06;12.00;;;1.70;;
22230;SDS011;11284;48.086;-1.652;2023-12-29T13:11:42;12.73;;;1.98;;
22230;SDS011;11284;48.086;-1.652;2023-12-29T13:14:08;8.65;;;1.80;;
22230;SDS011;11284;48.086;-1.652;2023-12-29T13:16:35;10.88;;;2.20;;
22230;SDS011;11284;48.086;-1.652;2023-12-29T13:19:20;12.88;;;2.22;;
22230;SDS011;11284;48.086;-1.652;2023-12-29T13:21:50;13.27;;;2.75;;
22230;SDS011;11284;48.086;-1.652;2023-12-29T13:24:20;12.23;;;2.35;;
22230;SDS011;11284;48.086;-1.652;2023-12-29T13:26:46;14.45;;;3.13;;
22230;SDS011;11284;48.086;-1.652;2023-12-29T13:29:17;12.93;;;2.60;;
22230;SDS011;11284;48.086;-1.652;2023-12-29T13:31:43;7.38;;;2.40;;
22230;SDS011;11284;48.086;-1.652;2023-12-29T13:34:15;13.85;;;2.75;;
22230;SDS011;11284;48.086;-1.652;2023-12-29T13:36:50;14.70;;;3.05;;
22230;SDS011;11284;48.086;-1.652;2023-12-29T13:39:39;12.63;;;2.28;;
22230;SDS011;11284;48.086;-1.652;2023-12-29T13:42:03;14.10;;;2.50;;
22230;SDS011;11284;48.086;-1.652;2023-12-29T13:44:30;14.50;;;2.38;;
22230;SDS011;11284;48.086;-1.652;2023-12-29T13:46:57;12.57;;;2.65;;
22230;SDS011;11284;48.086;-1.652;2023-12-29T13:49:23;12.05;;;2.65;;
22230;SDS011;11284;48.086;-1.652;2023-12-29T13:51:49;14.50;;;3.35;;
22230;SDS011;11284;48.086;-1.652;2023-12-29T13:54:15;9.82;;;2.72;;
22230;SDS011;11284;48.086;-1.652;2023-12-29T13:56:51;17.58;;;3.13;;
22230;SDS011;11284;48.086;-1.652;2023-12-29T13:59:18;9.77;;;2.42;;
22230;SDS011;11284;48.086;-1.652;2023-12-29T14:01:44;6.75;;;1.73;;
22230;SDS011;11284;48.086;-1.652;2023-12-29T14:04:11;6.82;;;1.52;;
22230;SDS011;11284;48.086;-1.652;2023-12-29T14:06:38;7.05;;;2.10;;
22230;SDS011;11284;48.086;-1.652;2023-12-29T14:09:04;10.13;;;2.28;;
22230;SDS011;11284;48.086;-1.652;2023-12-29T14:11:31;8.05;;;1.80;;
22230;SDS011;11284;48.086;-1.652;2023-12-29T14:13:57;5.90;;;1.17;;
22230;SDS011;11284;48.086;-1.652;2023-12-29T14:16:24;5.32;;;1.23;;
22230;SDS011;11284;48.086;-1.652;2023-12-29T14:18:53;7.95;;;1.63;;
22230;SDS011;11284;48.086;-1.652;2023-12-29T14:21:20;5.55;;;1.42;;
22230;SDS011;11284;48.086;-1.652;2023-12-29T14:26:25;7.82;;;1.42;;
22230;SDS011;11284;48.086;-1.652;2023-12-29T14:29:01;6.85;;;1.52;;
22230;SDS011;11284;48.086;-1.652;2023-12-29T14:31:27;7.22;;;1.38;;
22230;SDS011;11284;48.086;-1.652;2023-12-29T14:33:54;8.02;;;1.40;;
22230;SDS011;11284;48.086;-1.652;2023-12-29T14:36:20;7.28;;;1.40;;
22230;SDS011;11284;48.086;-1.652;2023-12-29T14:38:46;4.82;;;1.30;;
22230;SDS011;11284;48.086;-1.652;2023-12-29T14:41:12;6.00;;;1.48;;
22230;SDS011;11284;48.086;-1.652;2023-12-29T14:43:38;9.50;;;1.60;;